sensor_id;sensor_type;location;lat;lon;timestamp;P1;durP1;ratioP1;P2;durP2;ratioP2
26594;SDS011;14238;49.496;8.154;2023-05-16T00:00:22;29.23;;;26.20;;
26594;SDS011;14238;49.496;8.154;2023-05-16T00:02:49;27.63;;;24.73;;
26594;SDS011;14238;49.496;8.154;2023-05-16T00:05:15;29.23;;;26.20;;
26594;SDS011;14238;49.496;8.154;2023-05-16T00:07:41;30.23;;;26.83;;
26594;SDS011;14238;49.496;8.154;2023-05-16T00:10:08;31.87;;;28.57;;
26594;SDS011;14238;49.496;8.154;2023-05-16T00:12:35;29.03;;;26.03;;
26594;SDS011;14238;49.496;8.154;2023-05-16T00:15:01;30.00;;;26.70;;
26594;SDS011;14238;49.496;8.154;2023-05-16T00:17:29;29.33;;;26.10;;
26594;SDS011;14238;49.496;8.154;2023-05-16T00:19:54;31.87;;;28.67;;
26594;SDS011;14238;49.496;8.154;2023-05-16T00:22:23;31.20;;;28.00;;
26594;SDS011;14238;49.496;8.154;2023-05-16T00:24:48;30.40;;;27.40;;
26594;SDS011;14238;49.496;8.154;2023-05-16T00:27:14;31.80;;;28.50;;
26594;SDS011;14238;49.496;8.154;2023-05-16T00:29:40;31.87;;;28.63;;
26594;SDS011;14238;49.496;8.154;2023-05-16T00:32:05;32.03;;;28.40;;
26594;SDS011;14238;49.496;8.154;2023-05-16T00:34:32;28.10;;;24.90;;
26594;SDS011;14238;49.496;8.154;2023-05-16T00:36:58;28.97;;;24.80;;
26594;SDS011;14238;49.496;8.154;2023-05-16T00:39:24;29.63;;;26.30;;
26594;SDS011;14238;49.496;8.154;2023-05-16T00:41:50;31.30;;;27.70;;
26594;SDS011;14238;49.496;8.154;2023-05-16T00:44:15;29.90;;;26.43;;
26594;SDS011;14238;49.496;8.154;2023-05-16T00:46:41;31.50;;;28.10;;
26594;SDS011;14238;49.496;8.154;2023-05-16T00:49:07;28.47;;;25.47;;
26594;SDS011;14238;49.496;8.154;2023-05-16T00:51:33;28.70;;;25.60;;
26594;SDS011;14238;49.496;8.154;2023-05-16T00:54:00;29.57;;;25.73;;
26594;SDS011;14238;49.496;8.154;2023-05-16T00:56:26;27.47;;;24.73;;
26594;SDS011;14238;49.496;8.154;2023-05-16T00:58:52;29.17;;;26.27;;
26594;SDS011;14238;49.496;8.154;2023-05-16T01:01:18;28.87;;;24.97;;
26594;SDS011;14238;49.496;8.154;2023-05-16T01:03:45;28.97;;;25.53;;
26594;SDS011;14238;49.496;8.154;2023-05-16T01:06:12;27.37;;;24.50;;
26594;SDS011;14238;49.496;8.154;2023-05-16T01:08:37;28.20;;;24.83;;
26594;SDS011;14238;49.496;8.154;2023-05-16T01:13:43;28.63;;;25.63;;
26594;SDS011;14238;49.496;8.154;2023-05-16T01:16:30;25.30;;;21.47;;
26594;SDS011;14238;49.496;8.154;2023-05-16T01:24:22;26.73;;;24.03;;
26594;SDS011;14238;49.496;8.154;2023-05-16T01:26:57;25.93;;;23.30;;
26594;SDS011;14238;49.496;8.154;2023-05-16T01:29:24;24.97;;;22.30;;
26594;SDS011;14238;49.496;8.154;2023-05-16T01:31:49;25.77;;;22.80;;
26594;SDS011;14238;49.496;8.154;2023-05-16T01:34:15;26.20;;;23.40;;
26594;SDS011;14238;49.496;8.154;2023-05-16T01:36:43;24.53;;;21.93;;
26594;SDS011;14238;49.496;8.154;2023-05-16T01:42:04;24.77;;;22.10;;
26594;SDS011;14238;49.496;8.154;2023-05-16T01:44:35;23.13;;;20.67;;
26594;SDS011;14238;49.496;8.154;2023-05-16T01:47:16;24.60;;;22.00;;
26594;SDS011;14238;49.496;8.154;2023-05-16T01:52:49;24.27;;;21.77;;
26594;SDS011;14238;49.496;8.154;2023-05-16T01:55:37;26.13;;;22.57;;
26594;SDS011;14238;49.496;8.154;2023-05-16T01:58:10;22.60;;;20.30;;
26594;SDS011;14238;49.496;8.154;2023-05-16T02:00:39;25.20;;;21.67;;
26594;SDS011;14238;49.496;8.154;2023-05-16T02:03:05;24.57;;;22.03;;
26594;SDS011;14238;49.496;8.154;2023-05-16T02:05:31;25.03;;;21.60;;
26594;SDS011;14238;49.496;8.154;2023-05-16T02:07:58;24.07;;;21.47;;
26594;SDS011;14238;49.496;8.154;2023-05-16T02:10:24;22.53;;;20.23;;
26594;SDS011;14238;49.496;8.154;2023-05-16T02:12:50;23.20;;;20.80;;
26594;SDS011;14238;49.496;8.154;2023-05-16T02:15:16;23.93;;;21.63;;
26594;SDS011;14238;49.496;8.154;2023-05-16T02:17:41;25.90;;;20.90;;
26594;SDS011;14238;49.496;8.154;2023-05-16T02:20:07;22.20;;;19.90;;
26594;SDS011;14238;49.496;8.154;2023-05-16T02:22:34;22.03;;;19.73;;
26594;SDS011;14238;49.496;8.154;2023-05-16T02:25:01;21.97;;;19.60;;
26594;SDS011;14238;49.496;8.154;2023-05-16T02:27:27;22.57;;;20.37;;
26594;SDS011;14238;49.496;8.154;2023-05-16T02:29:53;24.90;;;20.50;;
26594;SDS011;14238;49.496;8.154;2023-05-16T02:32:19;27.90;;;21.87;;
26594;SDS011;14238;49.496;8.154;2023-05-16T02:34:44;24.97;;;22.00;;
26594;SDS011;14238;49.496;8.154;2023-05-16T02:37:10;24.77;;;22.00;;
26594;SDS011;14238;49.496;8.154;2023-05-16T02:39:35;21.70;;;19.27;;
26594;SDS011;14238;49.496;8.154;2023-05-16T02:42:02;22.60;;;20.00;;
26594;SDS011;14238;49.496;8.154;2023-05-16T02:44:28;22.80;;;20.40;;
26594;SDS011;14238;49.496;8.154;2023-05-16T02:46:53;22.50;;;20.20;;
26594;SDS011;14238;49.496;8.154;2023-05-16T02:49:19;23.37;;;19.53;;
26594;SDS011;14238;49.496;8.154;2023-05-16T02:51:44;22.77;;;20.30;;
26594;SDS011;14238;49.496;8.154;2023-05-16T02:54:11;25.50;;;20.30;;
26594;SDS011;14238;49.496;8.154;2023-05-16T02:56:36;22.17;;;19.53;;
26594;SDS011;14238;49.496;8.154;2023-05-16T02:59:02;24.90;;;21.60;;
26594;SDS011;14238;49.496;8.154;2023-05-16T03:01:28;22.67;;;19.13;;
26594;SDS011;14238;49.496;8.154;2023-05-16T03:03:54;23.60;;;19.70;;
26594;SDS011;14238;49.496;8.154;2023-05-16T03:06:20;20.50;;;18.27;;
26594;SDS011;14238;49.496;8.154;2023-05-16T03:08:46;23.13;;;19.00;;
26594;SDS011;14238;49.496;8.154;2023-05-16T03:11:12;22.57;;;18.80;;
26594;SDS011;14238;49.496;8.154;2023-05-16T03:13:38;21.73;;;18.60;;
26594;SDS011;14238;49.496;8.154;2023-05-16T03:16:04;20.90;;;18.70;;
26594;SDS011;14238;49.496;8.154;2023-05-16T03:18:30;22.40;;;19.07;;
26594;SDS011;14238;49.496;8.154;2023-05-16T03:20:55;23.70;;;20.20;;
26594;SDS011;14238;49.496;8.154;2023-05-16T03:23:21;22.93;;;18.60;;
26594;SDS011;14238;49.496;8.154;2023-05-16T03:25:47;25.80;;;19.97;;
26594;SDS011;14238;49.496;8.154;2023-05-16T03:28:13;22.07;;;18.90;;
26594;SDS011;14238;49.496;8.154;2023-05-16T03:30:40;22.27;;;19.37;;
26594;SDS011;14238;49.496;8.154;2023-05-16T03:33:06;22.83;;;18.60;;
26594;SDS011;14238;49.496;8.154;2023-05-16T03:35:31;22.90;;;19.40;;
26594;SDS011;14238;49.496;8.154;2023-05-16T03:37:58;27.90;;;19.90;;
26594;SDS011;14238;49.496;8.154;2023-05-16T03:40:24;21.77;;;18.73;;
26594;SDS011;14238;49.496;8.154;2023-05-16T03:42:50;21.57;;;19.27;;
26594;SDS011;14238;49.496;8.154;2023-05-16T03:45:15;22.37;;;18.30;;
26594;SDS011;14238;49.496;8.154;2023-05-16T03:47:41;20.33;;;17.93;;
26594;SDS011;14238;49.496;8.154;2023-05-16T03:50:07;20.87;;;18.60;;
26594;SDS011;14238;49.496;8.154;2023-05-16T03:52:33;21.40;;;17.70;;
26594;SDS011;14238;49.496;8.154;2023-05-16T03:54:59;20.00;;;17.80;;
26594;SDS011;14238;49.496;8.154;2023-05-16T03:57:26;20.27;;;16.50;;
26594;SDS011;14238;49.496;8.154;2023-05-16T03:59:53;20.00;;;16.60;;
26594;SDS011;14238;49.496;8.154;2023-05-16T04:02:19;19.13;;;16.80;;
26594;SDS011;14238;49.496;8.154;2023-05-16T04:04:45;20.37;;;17.33;;
26594;SDS011;14238;49.496;8.154;2023-05-16T04:07:10;21.47;;;17.90;;
26594;SDS011;14238;49.496;8.154;2023-05-16T04:09:36;21.60;;;17.17;;
26594;SDS011;14238;49.496;8.154;2023-05-16T04:12:01;19.20;;;16.30;;
26594;SDS011;14238;49.496;8.154;2023-05-16T04:14:27;20.20;;;17.17;;
26594;SDS011;14238;49.496;8.154;2023-05-16T04:16:53;18.63;;;15.73;;
26594;SDS011;14238;49.496;8.154;2023-05-16T04:19:18;17.97;;;15.23;;
26594;SDS011;14238;49.496;8.154;2023-05-16T04:21:44;15.60;;;13.93;;
26594;SDS011;14238;49.496;8.154;2023-05-16T04:24:09;16.20;;;14.50;;
26594;SDS011;14238;49.496;8.154;2023-05-16T04:26:35;16.13;;;14.00;;
26594;SDS011;14238;49.496;8.154;2023-05-16T04:29:01;17.83;;;13.60;;
26594;SDS011;14238;49.496;8.154;2023-05-16T04:31:27;15.30;;;13.23;;
26594;SDS011;14238;49.496;8.154;2023-05-16T04:33:52;14.07;;;12.50;;
26594;SDS011;14238;49.496;8.154;2023-05-16T04:36:18;13.07;;;11.83;;
26594;SDS011;14238;49.496;8.154;2023-05-16T04:38:44;15.23;;;11.40;;
26594;SDS011;14238;49.496;8.154;2023-05-16T04:41:13;13.90;;;12.00;;
26594;SDS011;14238;49.496;8.154;2023-05-16T04:43:39;12.93;;;10.10;;
26594;SDS011;14238;49.496;8.154;2023-05-16T04:46:05;11.70;;;10.30;;
26594;SDS011;14238;49.496;8.154;2023-05-16T04:48:31;10.73;;;9.40;;
26594;SDS011;14238;49.496;8.154;2023-05-16T04:50:57;10.17;;;8.90;;
26594;SDS011;14238;49.496;8.154;2023-05-16T04:53:23;9.43;;;8.30;;
26594;SDS011;14238;49.496;8.154;2023-05-16T04:55:49;11.83;;;9.40;;
26594;SDS011;14238;49.496;8.154;2023-05-16T04:58:14;9.67;;;8.67;;
26594;SDS011;14238;49.496;8.154;2023-05-16T05:00:40;10.37;;;9.27;;
26594;SDS011;14238;49.496;8.154;2023-05-16T05:03:06;10.50;;;9.40;;
26594;SDS011;14238;49.496;8.154;2023-05-16T05:05:32;9.27;;;8.30;;
26594;SDS011;14238;49.496;8.154;2023-05-16T05:07:57;9.40;;;8.50;;
26594;SDS011;14238;49.496;8.154;2023-05-16T05:10:24;8.70;;;7.80;;
26594;SDS011;14238;49.496;8.154;2023-05-16T05:12:51;8.10;;;6.67;;
26594;SDS011;14238;49.496;8.154;2023-05-16T05:15:17;7.27;;;6.57;;
26594;SDS011;14238;49.496;8.154;2023-05-16T05:17:43;5.20;;;4.80;;
26594;SDS011;14238;49.496;8.154;2023-05-16T05:20:09;5.40;;;4.93;;
26594;SDS011;14238;49.496;8.154;2023-05-16T05:22:35;4.20;;;3.90;;
26594;SDS011;14238;49.496;8.154;2023-05-16T05:25:01;5.00;;;3.90;;
26594;SDS011;14238;49.496;8.154;2023-05-16T05:27:27;3.33;;;3.03;;
26594;SDS011;14238;49.496;8.154;2023-05-16T05:29:52;3.67;;;2.90;;
26594;SDS011;14238;49.496;8.154;2023-05-16T05:32:18;2.90;;;2.70;;
26594;SDS011;14238;49.496;8.154;2023-05-16T05:34:43;3.07;;;2.87;;
26594;SDS011;14238;49.496;8.154;2023-05-16T05:37:09;2.60;;;2.10;;
26594;SDS011;14238;49.496;8.154;2023-05-16T05:39:35;5.10;;;2.73;;
26594;SDS011;14238;49.496;8.154;2023-05-16T05:42:00;2.27;;;1.90;;
26594;SDS011;14238;49.496;8.154;2023-05-16T05:44:29;2.07;;;1.87;;
26594;SDS011;14238;49.496;8.154;2023-05-16T05:46:55;2.20;;;2.10;;
26594;SDS011;14238;49.496;8.154;2023-05-16T05:49:25;1.97;;;1.87;;
26594;SDS011;14238;49.496;8.154;2023-05-16T05:51:51;1.67;;;1.57;;
26594;SDS011;14238;49.496;8.154;2023-05-16T05:54:17;1.70;;;1.60;;
26594;SDS011;14238;49.496;8.154;2023-05-16T05:56:43;2.80;;;1.97;;
26594;SDS011;14238;49.496;8.154;2023-05-16T05:59:09;1.80;;;1.70;;
26594;SDS011;14238;49.496;8.154;2023-05-16T06:01:35;1.97;;;1.50;;
26594;SDS011;14238;49.496;8.154;2023-05-16T06:04:00;1.80;;;1.70;;
26594;SDS011;14238;49.496;8.154;2023-05-16T06:06:26;1.90;;;1.80;;
26594;SDS011;14238;49.496;8.154;2023-05-16T06:08:52;2.00;;;1.90;;
26594;SDS011;14238;49.496;8.154;2023-05-16T06:11:18;3.07;;;1.50;;
26594;SDS011;14238;49.496;8.154;2023-05-16T06:13:43;1.57;;;1.47;;
26594;SDS011;14238;49.496;8.154;2023-05-16T06:16:09;1.87;;;1.53;;
26594;SDS011;14238;49.496;8.154;2023-05-16T06:18:34;1.40;;;1.40;;
26594;SDS011;14238;49.496;8.154;2023-05-16T06:21:00;1.50;;;1.40;;
26594;SDS011;14238;49.496;8.154;2023-05-16T06:23:25;1.60;;;1.23;;
26594;SDS011;14238;49.496;8.154;2023-05-16T06:25:51;1.57;;;1.47;;
26594;SDS011;14238;49.496;8.154;2023-05-16T06:28:17;3.60;;;1.20;;
26594;SDS011;14238;49.496;8.154;2023-05-16T06:30:42;1.20;;;1.20;;
26594;SDS011;14238;49.496;8.154;2023-05-16T06:33:08;1.37;;;1.27;;
26594;SDS011;14238;49.496;8.154;2023-05-16T06:35:33;1.23;;;1.23;;
26594;SDS011;14238;49.496;8.154;2023-05-16T06:37:59;1.13;;;1.10;;
26594;SDS011;14238;49.496;8.154;2023-05-16T06:40:24;1.00;;;1.00;;
26594;SDS011;14238;49.496;8.154;2023-05-16T06:42:50;1.00;;;1.00;;
26594;SDS011;14238;49.496;8.154;2023-05-16T06:45:16;2.73;;;1.00;;
26594;SDS011;14238;49.496;8.154;2023-05-16T06:47:41;1.47;;;1.10;;
26594;SDS011;14238;49.496;8.154;2023-05-16T06:50:07;1.10;;;1.10;;
26594;SDS011;14238;49.496;8.154;2023-05-16T06:52:34;0.83;;;0.83;;
26594;SDS011;14238;49.496;8.154;2023-05-16T06:54:59;1.20;;;1.10;;
26594;SDS011;14238;49.496;8.154;2023-05-16T06:57:25;2.97;;;1.00;;
26594;SDS011;14238;49.496;8.154;2023-05-16T06:59:50;1.07;;;1.07;;
26594;SDS011;14238;49.496;8.154;2023-05-16T07:02:17;1.80;;;1.03;;
26594;SDS011;14238;49.496;8.154;2023-05-16T07:04:43;1.20;;;1.20;;
26594;SDS011;14238;49.496;8.154;2023-05-16T07:07:08;2.53;;;1.13;;
26594;SDS011;14238;49.496;8.154;2023-05-16T07:09:34;1.00;;;1.00;;
26594;SDS011;14238;49.496;8.154;2023-05-16T07:11:59;3.43;;;1.20;;
26594;SDS011;14238;49.496;8.154;2023-05-16T07:14:25;1.33;;;1.00;;
26594;SDS011;14238;49.496;8.154;2023-05-16T07:16:51;1.00;;;1.00;;
26594;SDS011;14238;49.496;8.154;2023-05-16T07:19:16;1.30;;;1.30;;
26594;SDS011;14238;49.496;8.154;2023-05-16T07:21:42;2.10;;;1.23;;
26594;SDS011;14238;49.496;8.154;2023-05-16T07:24:07;1.00;;;1.00;;
26594;SDS011;14238;49.496;8.154;2023-05-16T07:26:33;1.00;;;1.00;;
26594;SDS011;14238;49.496;8.154;2023-05-16T07:28:58;1.03;;;0.93;;
26594;SDS011;14238;49.496;8.154;2023-05-16T07:31:26;1.17;;;1.17;;
26594;SDS011;14238;49.496;8.154;2023-05-16T07:33:52;0.80;;;0.80;;
26594;SDS011;14238;49.496;8.154;2023-05-16T07:36:17;1.17;;;1.17;;
26594;SDS011;14238;49.496;8.154;2023-05-16T07:38:43;1.10;;;1.10;;
26594;SDS011;14238;49.496;8.154;2023-05-16T07:41:09;1.23;;;1.23;;
26594;SDS011;14238;49.496;8.154;2023-05-16T07:43:34;1.10;;;1.00;;
26594;SDS011;14238;49.496;8.154;2023-05-16T07:46:01;1.30;;;1.30;;
26594;SDS011;14238;49.496;8.154;2023-05-16T07:48:27;0.87;;;0.87;;
26594;SDS011;14238;49.496;8.154;2023-05-16T07:50:52;2.47;;;1.17;;
26594;SDS011;14238;49.496;8.154;2023-05-16T07:53:19;0.80;;;0.80;;
26594;SDS011;14238;49.496;8.154;2023-05-16T07:55:45;0.90;;;0.90;;
26594;SDS011;14238;49.496;8.154;2023-05-16T07:58:11;1.20;;;0.70;;
26594;SDS011;14238;49.496;8.154;2023-05-16T08:00:36;2.90;;;0.87;;
26594;SDS011;14238;49.496;8.154;2023-05-16T08:03:03;0.97;;;0.97;;
26594;SDS011;14238;49.496;8.154;2023-05-16T08:05:29;1.80;;;0.80;;
26594;SDS011;14238;49.496;8.154;2023-05-16T08:07:54;0.80;;;0.80;;
26594;SDS011;14238;49.496;8.154;2023-05-16T08:10:20;0.80;;;0.80;;
26594;SDS011;14238;49.496;8.154;2023-05-16T08:12:47;1.07;;;1.00;;
26594;SDS011;14238;49.496;8.154;2023-05-16T08:15:14;0.83;;;0.83;;
26594;SDS011;14238;49.496;8.154;2023-05-16T08:17:39;0.83;;;0.83;;
26594;SDS011;14238;49.496;8.154;2023-05-16T08:20:05;0.90;;;0.90;;
26594;SDS011;14238;49.496;8.154;2023-05-16T08:22:32;1.27;;;0.80;;
26594;SDS011;14238;49.496;8.154;2023-05-16T08:24:57;0.80;;;0.80;;
26594;SDS011;14238;49.496;8.154;2023-05-16T08:27:24;0.90;;;0.90;;
26594;SDS011;14238;49.496;8.154;2023-05-16T08:29:50;0.80;;;0.80;;
26594;SDS011;14238;49.496;8.154;2023-05-16T08:32:16;0.80;;;0.80;;
26594;SDS011;14238;49.496;8.154;2023-05-16T08:34:41;1.47;;;1.07;;
26594;SDS011;14238;49.496;8.154;2023-05-16T08:37:07;1.00;;;1.00;;
26594;SDS011;14238;49.496;8.154;2023-05-16T08:39:33;0.90;;;0.90;;
26594;SDS011;14238;49.496;8.154;2023-05-16T08:41:58;0.70;;;0.70;;
26594;SDS011;14238;49.496;8.154;2023-05-16T08:44:24;2.60;;;0.77;;
26594;SDS011;14238;49.496;8.154;2023-05-16T08:46:50;0.90;;;0.90;;
26594;SDS011;14238;49.496;8.154;2023-05-16T08:49:17;0.87;;;0.87;;
26594;SDS011;14238;49.496;8.154;2023-05-16T08:51:43;0.73;;;0.70;;
26594;SDS011;14238;49.496;8.154;2023-05-16T08:54:12;2.10;;;0.77;;
26594;SDS011;14238;49.496;8.154;2023-05-16T08:56:38;0.80;;;0.80;;
26594;SDS011;14238;49.496;8.154;2023-05-16T08:59:08;1.00;;;1.00;;
26594;SDS011;14238;49.496;8.154;2023-05-16T09:01:35;1.80;;;0.80;;
26594;SDS011;14238;49.496;8.154;2023-05-16T09:04:01;2.20;;;1.00;;
26594;SDS011;14238;49.496;8.154;2023-05-16T09:06:30;1.00;;;1.00;;
26594;SDS011;14238;49.496;8.154;2023-05-16T09:08:56;1.40;;;0.73;;
26594;SDS011;14238;49.496;8.154;2023-05-16T09:11:22;0.90;;;0.90;;
26594;SDS011;14238;49.496;8.154;2023-05-16T09:13:48;0.87;;;0.87;;
26594;SDS011;14238;49.496;8.154;2023-05-16T09:16:14;3.97;;;0.90;;
26594;SDS011;14238;49.496;8.154;2023-05-16T09:18:54;1.10;;;0.70;;
26594;SDS011;14238;49.496;8.154;2023-05-16T09:21:26;0.70;;;0.70;;
26594;SDS011;14238;49.496;8.154;2023-05-16T09:23:52;1.63;;;0.80;;
26594;SDS011;14238;49.496;8.154;2023-05-16T09:26:18;0.80;;;0.80;;
26594;SDS011;14238;49.496;8.154;2023-05-16T09:28:46;1.70;;;0.90;;
26594;SDS011;14238;49.496;8.154;2023-05-16T09:31:18;1.60;;;0.80;;
26594;SDS011;14238;49.496;8.154;2023-05-16T09:33:50;1.23;;;1.00;;
26594;SDS011;14238;49.496;8.154;2023-05-16T09:36:22;1.33;;;1.10;;
26594;SDS011;14238;49.496;8.154;2023-05-16T09:38:51;0.90;;;0.90;;
26594;SDS011;14238;49.496;8.154;2023-05-16T09:41:16;0.90;;;0.90;;
26594;SDS011;14238;49.496;8.154;2023-05-16T09:43:43;0.87;;;0.87;;
26594;SDS011;14238;49.496;8.154;2023-05-16T09:46:12;2.70;;;1.20;;
26594;SDS011;14238;49.496;8.154;2023-05-16T09:48:45;1.10;;;1.10;;
26594;SDS011;14238;49.496;8.154;2023-05-16T09:51:12;1.53;;;0.97;;
26594;SDS011;14238;49.496;8.154;2023-05-16T09:53:38;1.33;;;1.00;;
26594;SDS011;14238;49.496;8.154;2023-05-16T09:56:06;1.13;;;1.13;;
26594;SDS011;14238;49.496;8.154;2023-05-16T09:58:36;1.13;;;1.13;;
26594;SDS011;14238;49.496;8.154;2023-05-16T10:01:03;1.30;;;1.20;;
26594;SDS011;14238;49.496;8.154;2023-05-16T10:03:29;1.83;;;1.33;;
26594;SDS011;14238;49.496;8.154;2023-05-16T10:05:56;1.57;;;1.47;;
26594;SDS011;14238;49.496;8.154;2023-05-16T10:08:24;2.07;;;1.33;;
26594;SDS011;14238;49.496;8.154;2023-05-16T10:10:52;1.60;;;1.50;;
26594;SDS011;14238;49.496;8.154;2023-05-16T10:13:23;3.10;;;1.10;;
26594;SDS011;14238;49.496;8.154;2023-05-16T10:15:54;1.30;;;1.20;;
26594;SDS011;14238;49.496;8.154;2023-05-16T10:18:21;1.30;;;1.20;;
26594;SDS011;14238;49.496;8.154;2023-05-16T10:20:49;1.73;;;1.30;;
26594;SDS011;14238;49.496;8.154;2023-05-16T10:23:18;1.77;;;1.67;;
26594;SDS011;14238;49.496;8.154;2023-05-16T10:25:45;1.83;;;1.70;;
26594;SDS011;14238;49.496;8.154;2023-05-16T10:28:12;3.03;;;1.90;;
26594;SDS011;14238;49.496;8.154;2023-05-16T10:30:39;3.30;;;1.63;;
26594;SDS011;14238;49.496;8.154;2023-05-16T10:33:07;2.83;;;1.77;;
26594;SDS011;14238;49.496;8.154;2023-05-16T10:35:37;2.90;;;2.70;;
26594;SDS011;14238;49.496;8.154;2023-05-16T10:38:03;5.17;;;3.50;;
26594;SDS011;14238;49.496;8.154;2023-05-16T10:40:30;5.30;;;3.83;;
26594;SDS011;14238;49.496;8.154;2023-05-16T10:42:57;4.20;;;3.80;;
26594;SDS011;14238;49.496;8.154;2023-05-16T10:45:24;4.60;;;3.70;;
26594;SDS011;14238;49.496;8.154;2023-05-16T10:47:54;5.00;;;3.87;;
26594;SDS011;14238;49.496;8.154;2023-05-16T10:50:30;6.13;;;3.70;;
26594;SDS011;14238;49.496;8.154;2023-05-16T10:53:16;5.23;;;4.10;;
26594;SDS011;14238;49.496;8.154;2023-05-16T11:06:28;6.30;;;4.70;;
26594;SDS011;14238;49.496;8.154;2023-05-16T11:14:20;6.90;;;3.90;;
26594;SDS011;14238;49.496;8.154;2023-05-16T11:16:59;7.90;;;4.10;;
26594;SDS011;14238;49.496;8.154;2023-05-16T11:19:30;6.13;;;3.60;;
26594;SDS011;14238;49.496;8.154;2023-05-16T11:25:05;6.53;;;3.70;;
26594;SDS011;14238;49.496;8.154;2023-05-16T11:27:44;4.13;;;3.70;;
26594;SDS011;14238;49.496;8.154;2023-05-16T11:30:12;5.37;;;3.30;;
26594;SDS011;14238;49.496;8.154;2023-05-16T11:32:41;4.97;;;3.50;;
26594;SDS011;14238;49.496;8.154;2023-05-16T11:35:12;4.40;;;4.00;;
26594;SDS011;14238;49.496;8.154;2023-05-16T11:37:39;5.00;;;3.93;;
26594;SDS011;14238;49.496;8.154;2023-05-16T11:40:05;4.50;;;3.50;;
26594;SDS011;14238;49.496;8.154;2023-05-16T11:42:34;3.87;;;3.33;;
26594;SDS011;14238;49.496;8.154;2023-05-16T11:47:36;8.60;;;3.40;;
26594;SDS011;14238;49.496;8.154;2023-05-16T11:50:06;6.67;;;3.30;;
26594;SDS011;14238;49.496;8.154;2023-05-16T11:52:35;6.33;;;4.10;;
26594;SDS011;14238;49.496;8.154;2023-05-16T11:55:03;3.40;;;2.90;;
26594;SDS011;14238;49.496;8.154;2023-05-16T11:57:30;5.73;;;3.37;;
26594;SDS011;14238;49.496;8.154;2023-05-16T12:00:00;6.10;;;2.90;;
26594;SDS011;14238;49.496;8.154;2023-05-16T12:02:35;4.90;;;3.43;;
26594;SDS011;14238;49.496;8.154;2023-05-16T12:05:04;4.97;;;2.60;;
26594;SDS011;14238;49.496;8.154;2023-05-16T12:07:34;3.67;;;2.77;;
26594;SDS011;14238;49.496;8.154;2023-05-16T12:10:04;8.87;;;3.20;;
26594;SDS011;14238;49.496;8.154;2023-05-16T12:12:31;5.70;;;2.90;;
26594;SDS011;14238;49.496;8.154;2023-05-16T12:14:57;4.50;;;2.60;;
26594;SDS011;14238;49.496;8.154;2023-05-16T12:17:23;4.03;;;2.60;;
26594;SDS011;14238;49.496;8.154;2023-05-16T12:19:48;5.73;;;2.70;;
26594;SDS011;14238;49.496;8.154;2023-05-16T12:22:15;4.07;;;3.60;;
26594;SDS011;14238;49.496;8.154;2023-05-16T12:24:42;8.77;;;3.63;;
26594;SDS011;14238;49.496;8.154;2023-05-16T12:27:08;4.40;;;2.27;;
26594;SDS011;14238;49.496;8.154;2023-05-16T12:29:33;3.73;;;2.50;;
26594;SDS011;14238;49.496;8.154;2023-05-16T12:31:59;3.43;;;2.00;;
26594;SDS011;14238;49.496;8.154;2023-05-16T12:34:27;3.53;;;2.20;;
26594;SDS011;14238;49.496;8.154;2023-05-16T12:36:54;3.90;;;2.23;;
26594;SDS011;14238;49.496;8.154;2023-05-16T12:39:20;6.60;;;2.70;;
26594;SDS011;14238;49.496;8.154;2023-05-16T12:41:46;6.80;;;2.43;;
26594;SDS011;14238;49.496;8.154;2023-05-16T12:46:41;3.40;;;2.27;;
26594;SDS011;14238;49.496;8.154;2023-05-16T12:49:08;2.50;;;2.00;;
26594;SDS011;14238;49.496;8.154;2023-05-16T12:51:34;4.30;;;2.40;;
26594;SDS011;14238;49.496;8.154;2023-05-16T12:54:06;6.97;;;2.00;;
26594;SDS011;14238;49.496;8.154;2023-05-16T12:56:33;9.40;;;2.63;;
26594;SDS011;14238;49.496;8.154;2023-05-16T12:58:59;6.17;;;2.80;;
26594;SDS011;14238;49.496;8.154;2023-05-16T13:01:25;3.37;;;2.20;;
26594;SDS011;14238;49.496;8.154;2023-05-16T13:03:50;4.93;;;2.20;;
26594;SDS011;14238;49.496;8.154;2023-05-16T13:06:16;3.60;;;2.90;;
26594;SDS011;14238;49.496;8.154;2023-05-16T13:08:42;7.27;;;2.20;;
26594;SDS011;14238;49.496;8.154;2023-05-16T13:11:07;6.10;;;2.30;;
26594;SDS011;14238;49.496;8.154;2023-05-16T13:13:33;4.13;;;2.50;;
26594;SDS011;14238;49.496;8.154;2023-05-16T13:15:59;5.40;;;2.30;;
26594;SDS011;14238;49.496;8.154;2023-05-16T13:18:25;2.90;;;1.80;;
26594;SDS011;14238;49.496;8.154;2023-05-16T13:20:50;3.90;;;2.20;;
26594;SDS011;14238;49.496;8.154;2023-05-16T13:23:16;6.20;;;2.50;;
26594;SDS011;14238;49.496;8.154;2023-05-16T13:25:42;3.60;;;2.30;;
26594;SDS011;14238;49.496;8.154;2023-05-16T13:28:08;3.93;;;2.57;;
26594;SDS011;14238;49.496;8.154;2023-05-16T13:30:34;3.47;;;2.10;;
26594;SDS011;14238;49.496;8.154;2023-05-16T13:33:01;5.60;;;2.40;;
26594;SDS011;14238;49.496;8.154;2023-05-16T13:35:26;7.03;;;3.37;;
26594;SDS011;14238;49.496;8.154;2023-05-16T13:37:52;6.60;;;2.40;;
26594;SDS011;14238;49.496;8.154;2023-05-16T13:40:19;5.73;;;2.13;;
26594;SDS011;14238;49.496;8.154;2023-05-16T13:42:45;5.30;;;2.37;;
26594;SDS011;14238;49.496;8.154;2023-05-16T13:45:10;5.00;;;2.23;;
26594;SDS011;14238;49.496;8.154;2023-05-16T13:47:36;3.57;;;2.43;;
26594;SDS011;14238;49.496;8.154;2023-05-16T13:50:03;7.80;;;2.30;;
26594;SDS011;14238;49.496;8.154;2023-05-16T13:52:34;4.87;;;2.27;;
26594;SDS011;14238;49.496;8.154;2023-05-16T13:55:01;3.90;;;2.27;;
26594;SDS011;14238;49.496;8.154;2023-05-16T13:57:27;4.03;;;2.43;;
26594;SDS011;14238;49.496;8.154;2023-05-16T13:59:53;3.00;;;1.83;;
26594;SDS011;14238;49.496;8.154;2023-05-16T14:02:18;3.70;;;2.00;;
26594;SDS011;14238;49.496;8.154;2023-05-16T14:04:44;3.83;;;1.90;;
26594;SDS011;14238;49.496;8.154;2023-05-16T14:07:10;4.00;;;1.83;;
26594;SDS011;14238;49.496;8.154;2023-05-16T14:09:35;3.53;;;1.83;;
26594;SDS011;14238;49.496;8.154;2023-05-16T14:12:03;1.93;;;1.50;;
26594;SDS011;14238;49.496;8.154;2023-05-16T14:14:31;6.63;;;1.70;;
26594;SDS011;14238;49.496;8.154;2023-05-16T14:16:58;2.47;;;1.37;;
26594;SDS011;14238;49.496;8.154;2023-05-16T14:19:24;3.50;;;1.70;;
26594;SDS011;14238;49.496;8.154;2023-05-16T14:21:49;3.13;;;1.37;;
26594;SDS011;14238;49.496;8.154;2023-05-16T14:24:15;1.80;;;1.50;;
26594;SDS011;14238;49.496;8.154;2023-05-16T14:26:40;1.60;;;1.33;;
26594;SDS011;14238;49.496;8.154;2023-05-16T14:29:06;1.73;;;1.40;;
26594;SDS011;14238;49.496;8.154;2023-05-16T14:31:31;3.27;;;1.53;;
26594;SDS011;14238;49.496;8.154;2023-05-16T14:33:57;3.70;;;1.50;;
26594;SDS011;14238;49.496;8.154;2023-05-16T14:36:23;2.67;;;1.37;;
26594;SDS011;14238;49.496;8.154;2023-05-16T14:38:49;2.20;;;1.30;;
26594;SDS011;14238;49.496;8.154;2023-05-16T14:41:15;2.10;;;1.70;;
26594;SDS011;14238;49.496;8.154;2023-05-16T14:43:40;1.57;;;1.47;;
26594;SDS011;14238;49.496;8.154;2023-05-16T14:46:06;6.53;;;1.63;;
26594;SDS011;14238;49.496;8.154;2023-05-16T14:48:31;2.70;;;1.43;;
26594;SDS011;14238;49.496;8.154;2023-05-16T14:50:57;3.37;;;1.37;;
26594;SDS011;14238;49.496;8.154;2023-05-16T14:53:24;3.03;;;1.40;;
26594;SDS011;14238;49.496;8.154;2023-05-16T14:55:50;3.33;;;1.23;;
26594;SDS011;14238;49.496;8.154;2023-05-16T14:58:16;2.60;;;1.60;;
26594;SDS011;14238;49.496;8.154;2023-05-16T15:00:41;3.27;;;1.77;;
26594;SDS011;14238;49.496;8.154;2023-05-16T15:03:07;5.10;;;1.70;;
26594;SDS011;14238;49.496;8.154;2023-05-16T15:05:32;1.93;;;1.27;;
26594;SDS011;14238;49.496;8.154;2023-05-16T15:07:58;1.40;;;1.30;;
26594;SDS011;14238;49.496;8.154;2023-05-16T15:10:24;2.23;;;1.63;;
26594;SDS011;14238;49.496;8.154;2023-05-16T15:12:50;3.43;;;1.70;;